createdAt,value
2023-02-14T00:01:28.467Z,96.39
2023-02-14T00:04:00.696Z,96.45
2023-02-14T00:06:29.888Z,97.09
2023-02-14T00:08:58.755Z,98.80
2023-02-14T00:11:26.530Z,97.05
2023-02-14T00:14:13.113Z,97.21
2023-02-14T00:16:40.717Z,97.42
2023-02-14T00:19:11.940Z,96.17
2023-02-14T00:21:40.338Z,96.20
2023-02-14T00:24:13.434Z,97.12
2023-02-14T00:26:41.991Z,96.20
2023-02-14T00:29:12.130Z,96.92
2023-02-14T00:31:41.404Z,96.36
2023-02-14T00:34:10.210Z,98.29
2023-02-14T00:36:38.755Z,98.76
2023-02-14T00:39:09.457Z,100.00
2023-02-14T00:41:38.753Z,100.00
2023-02-14T00:44:07.744Z,100.00
2023-02-14T00:46:37.153Z,100.00
2023-02-14T00:49:05.012Z,100.00
2023-02-14T00:51:33.157Z,100.00
2023-02-14T00:54:03.644Z,100.00
2023-02-14T00:56:32.960Z,100.00
2023-02-14T00:59:00.706Z,100.00
2023-02-14T01:01:29.170Z,100.00
2023-02-14T01:03:56.904Z,100.00
2023-02-14T01:06:25.301Z,100.00
2023-02-14T01:08:52.969Z,100.00
2023-02-14T01:11:22.670Z,100.00
2023-02-14T01:13:52.681Z,100.00
2023-02-14T01:16:23.473Z,100.00
2023-02-14T01:18:52.146Z,100.00
2023-02-14T01:21:29.098Z,100.00
2023-02-14T01:23:59.518Z,100.00
2023-02-14T01:26:28.923Z,100.00
2023-02-14T01:28:56.908Z,100.00
2023-02-14T01:31:30.938Z,100.00
2023-02-14T01:33:59.606Z,100.00
2023-02-14T01:36:33.180Z,100.00
2023-02-14T01:39:04.647Z,100.00
2023-02-14T01:41:34.692Z,100.00
2023-02-14T01:44:04.686Z,100.00
2023-02-14T01:46:35.415Z,100.00
2023-02-14T01:49:22.942Z,100.00
2023-02-14T01:51:57.151Z,100.00
2023-02-14T01:54:27.723Z,100.00
2023-02-14T01:57:01.397Z,100.00
2023-02-14T01:59:37.103Z,100.00
2023-02-14T02:02:05.548Z,100.00
2023-02-14T02:04:38.068Z,100.00
2023-02-14T02:07:08.969Z,100.00
2023-02-14T02:09:44.129Z,100.00
2023-02-14T02:12:13.257Z,100.00
2023-02-14T02:14:42.983Z,100.00
2023-02-14T02:17:49.313Z,100.00
2023-02-14T02:20:32.676Z,100.00
2023-02-14T02:23:46.358Z,100.00
2023-02-14T02:26:23.422Z,100.00
2023-02-14T02:29:18.609Z,100.00
2023-02-14T02:32:08.718Z,100.00
2023-02-14T02:35:16.222Z,100.00
2023-02-14T02:38:04.131Z,100.00
2023-02-14T02:40:46.704Z,100.00
2023-02-14T02:43:17.906Z,100.00
2023-02-14T02:46:15.149Z,100.00
2023-02-14T02:49:13.409Z,100.00
2023-02-14T02:52:26.999Z,100.00
2023-02-14T02:55:00.672Z,100.00
2023-02-14T02:57:35.274Z,100.00
2023-02-14T03:00:05.373Z,100.00
2023-02-14T03:02:58.370Z,100.00
2023-02-14T03:05:29.076Z,100.00
2023-02-14T03:07:56.852Z,100.00
2023-02-14T03:10:28.520Z,100.00
2023-02-14T03:13:24.382Z,100.00
2023-02-14T03:16:10.875Z,100.00
2023-02-14T03:19:03.405Z,100.00
2023-02-14T03:21:42.232Z,100.00
2023-02-14T03:24:54.571Z,100.00
2023-02-14T03:27:31.682Z,100.00
2023-02-14T03:30:18.622Z,100.00
2023-02-14T03:33:04.107Z,100.00
2023-02-14T03:35:46.808Z,100.00
2023-02-14T03:38:40.606Z,100.00
2023-02-14T03:41:16.008Z,100.00
2023-02-14T03:44:01.015Z,100.00
2023-02-14T03:46:37.913Z,100.00
2023-02-14T03:49:10.690Z,100.00
2023-02-14T03:51:39.782Z,100.00
2023-02-14T03:54:11.517Z,100.00
2023-02-14T03:56:49.608Z,100.00
2023-02-14T03:59:22.395Z,100.00
2023-02-14T04:02:44.643Z,100.00
2023-02-14T04:05:18.898Z,100.00
2023-02-14T04:07:50.210Z,100.00
2023-02-14T04:10:20.513Z,100.00
2023-02-14T04:12:48.807Z,100.00
2023-02-14T04:15:17.773Z,100.00
2023-02-14T04:18:04.989Z,100.00
2023-02-14T04:20:34.191Z,100.00
2023-02-14T04:23:03.434Z,100.00
2023-02-14T04:25:31.729Z,100.00
2023-02-14T04:27:59.784Z,100.00
2023-02-14T04:30:27.488Z,100.00
2023-02-14T04:32:55.454Z,100.00
2023-02-14T04:35:23.042Z,100.00
2023-02-14T04:37:51.052Z,100.00
2023-02-14T04:40:19.955Z,100.00
2023-02-14T04:42:48.059Z,100.00
2023-02-14T04:45:16.338Z,100.00
2023-02-14T04:47:44.010Z,100.00
2023-02-14T04:50:11.678Z,100.00
2023-02-14T04:52:40.557Z,100.00
2023-02-14T04:55:09.879Z,100.00
2023-02-14T04:57:37.527Z,100.00
2023-02-14T05:00:05.847Z,100.00
2023-02-14T05:02:33.685Z,100.00
2023-02-14T05:05:01.401Z,100.00
2023-02-14T05:07:29.920Z,100.00
2023-02-14T05:09:57.685Z,100.00
2023-02-14T05:12:25.879Z,100.00
2023-02-14T05:14:53.670Z,100.00
2023-02-14T05:17:21.301Z,100.00
2023-02-14T05:19:48.885Z,100.00
2023-02-14T05:22:18.407Z,100.00
2023-02-14T05:24:46.654Z,100.00
2023-02-14T05:27:14.594Z,100.00
2023-02-14T05:29:43.147Z,100.00
2023-02-14T05:32:10.667Z,100.00
2023-02-14T05:34:39.037Z,100.00
2023-02-14T05:37:07.082Z,100.00
2023-02-14T05:39:34.556Z,100.00
2023-02-14T05:42:03.274Z,100.00
2023-02-14T05:44:31.387Z,100.00
2023-02-14T05:46:59.384Z,100.00
2023-02-14T05:49:27.567Z,100.00
2023-02-14T05:51:55.519Z,100.00
2023-02-14T05:54:23.551Z,100.00
2023-02-14T05:56:51.228Z,100.00
2023-02-14T05:59:19.181Z,100.00
2023-02-14T06:01:46.771Z,100.00
2023-02-14T06:04:14.933Z,100.00
2023-02-14T06:06:43.353Z,100.00
2023-02-14T06:09:11.338Z,100.00
2023-02-14T06:11:38.798Z,100.00
2023-02-14T06:14:06.436Z,100.00
2023-02-14T06:16:33.956Z,100.00
2023-02-14T06:19:01.944Z,100.00
2023-02-14T06:21:29.706Z,100.00
2023-02-14T06:23:57.616Z,100.00
2023-02-14T06:26:27.953Z,100.00
2023-02-14T06:28:57.825Z,100.00
2023-02-14T06:31:26.234Z,100.00
2023-02-14T06:33:54.549Z,100.00
2023-02-14T06:36:22.527Z,100.00
2023-02-14T06:38:51.007Z,100.00
2023-02-14T06:41:18.786Z,100.00
2023-02-14T06:43:50.607Z,100.00
2023-02-14T06:46:19.138Z,100.00
2023-02-14T06:48:47.263Z,100.00
2023-02-14T06:51:14.860Z,100.00
2023-02-14T06:53:42.720Z,100.00
2023-02-14T06:56:10.242Z,100.00
2023-02-14T06:58:38.716Z,100.00
2023-02-14T07:01:06.874Z,100.00
2023-02-14T07:03:34.664Z,100.00
2023-02-14T07:06:03.201Z,100.00
2023-02-14T07:08:30.978Z,100.00
2023-02-14T07:10:59.131Z,100.00
2023-02-14T07:13:27.586Z,100.00
2023-02-14T07:15:55.658Z,100.00
2023-02-14T07:18:23.291Z,100.00
2023-02-14T07:20:51.759Z,100.00
2023-02-14T07:23:19.359Z,100.00
2023-02-14T07:25:47.305Z,100.00
2023-02-14T07:28:15.130Z,100.00
2023-02-14T07:30:43.114Z,100.00
2023-02-14T07:33:11.360Z,100.00
2023-02-14T07:35:39.062Z,100.00
2023-02-14T07:38:07.787Z,100.00
2023-02-14T07:40:35.832Z,100.00
2023-02-14T07:43:03.892Z,100.00
2023-02-14T07:45:31.897Z,100.00
2023-02-14T07:48:02.114Z,100.00
2023-02-14T07:50:30.474Z,100.00
2023-02-14T07:52:58.026Z,100.00
2023-02-14T07:55:26.041Z,100.00
2023-02-14T07:57:53.744Z,100.00
2023-02-14T08:00:22.192Z,98.41
2023-02-14T08:02:50.168Z,98.22
2023-02-14T08:05:18.593Z,95.39
2023-02-14T08:07:49.131Z,95.26
2023-02-14T08:10:17.276Z,95.98
2023-02-14T08:13:00.349Z,95.07
2023-02-14T08:15:54.071Z,91.86
2023-02-14T08:18:27.194Z,89.01
2023-02-14T08:20:55.177Z,86.18
2023-02-14T08:23:23.172Z,86.51
2023-02-14T08:25:52.543Z,85.86
2023-02-14T08:28:23.304Z,89.71
2023-02-14T08:30:52.312Z,91.38
2023-02-14T08:33:20.964Z,92.05
2023-02-14T08:35:49.090Z,91.49
2023-02-14T08:38:16.625Z,92.24
2023-02-14T08:40:44.723Z,90.18
2023-02-14T08:43:13.728Z,89.60
2023-02-14T08:45:42.330Z,89.47
2023-02-14T08:48:12.636Z,87.67
2023-02-14T08:50:40.858Z,86.02
2023-02-14T08:53:10.674Z,82.76
2023-02-14T08:55:38.541Z,81.73
2023-02-14T08:58:07.218Z,80.72
2023-02-14T09:00:35.775Z,78.87
2023-02-14T09:03:03.903Z,75.85
2023-02-14T09:05:32.848Z,75.46
2023-02-14T09:08:02.413Z,71.13
2023-02-14T09:10:30.095Z,69.37
2023-02-14T09:12:58.019Z,74.70
2023-02-14T09:15:25.924Z,69.36
2023-02-14T09:17:53.615Z,64.31
2023-02-14T09:20:21.822Z,60.27
2023-02-14T09:22:50.256Z,53.26
2023-02-14T09:25:17.981Z,49.77
2023-02-14T09:27:46.018Z,45.99
2023-02-14T09:30:14.146Z,42.73
2023-02-14T09:32:42.164Z,42.22
2023-02-14T09:35:09.868Z,41.07
2023-02-14T09:37:57.314Z,43.33
2023-02-14T09:40:25.793Z,42.80
2023-02-14T09:42:57.442Z,40.41
2023-02-14T09:45:27.644Z,41.02
2023-02-14T09:48:10.168Z,40.17
2023-02-14T09:50:45.761Z,37.30
2023-02-14T09:53:16.371Z,37.45
2023-02-14T09:56:08.880Z,37.37
2023-02-14T09:58:46.086Z,37.01
2023-02-14T10:01:29.742Z,38.36
2023-02-14T10:04:21.558Z,36.21
2023-02-14T10:07:01.226Z,36.78
2023-02-14T10:09:49.625Z,36.49
2023-02-14T10:12:35.456Z,35.90
2023-02-14T10:15:14.293Z,34.37
2023-02-14T10:17:47.374Z,33.23
2023-02-14T10:20:24.493Z,37.65
2023-02-14T10:23:03.324Z,35.73
2023-02-14T10:25:42.738Z,41.50
2023-02-14T10:28:16.502Z,39.83
2023-02-14T10:30:56.408Z,39.19
2023-02-14T10:33:31.154Z,36.86
2023-02-14T10:36:06.236Z,37.83
2023-02-14T10:39:02.286Z,39.44
2023-02-14T10:41:43.819Z,41.31
2023-02-14T10:44:39.258Z,40.14
2023-02-14T10:47:20.338Z,42.31
2023-02-14T10:50:08.712Z,40.69
2023-02-14T10:52:57.384Z,38.57
2023-02-14T10:55:35.027Z,37.56
2023-02-14T10:58:06.562Z,40.04
2023-02-14T11:00:38.624Z,40.04
2023-02-14T11:03:10.938Z,41.59
2023-02-14T11:05:46.174Z,39.93
2023-02-14T11:08:39.819Z,38.74
2023-02-14T11:11:18.351Z,37.13
2023-02-14T11:13:46.419Z,36.56
2023-02-14T11:16:36.151Z,35.82
2023-02-14T11:19:10.306Z,33.96
2023-02-14T11:21:44.017Z,32.77
2023-02-14T11:24:30.677Z,33.01
2023-02-14T11:27:02.769Z,31.59
2023-02-14T11:29:33.354Z,30.69
2023-02-14T11:32:17.103Z,31.19
2023-02-14T11:34:54.370Z,30.22
2023-02-14T11:37:25.987Z,31.52
2023-02-14T11:39:55.561Z,31.32
2023-02-14T11:42:45.510Z,31.55
2023-02-14T11:45:34.705Z,29.59
2023-02-14T11:48:37.217Z,29.36
2023-02-14T11:51:09.958Z,29.22
2023-02-14T11:53:43.625Z,29.36
2023-02-14T11:56:11.401Z,28.99
2023-02-14T11:58:46.062Z,28.27
2023-02-14T12:01:32.502Z,30.14
2023-02-14T12:04:06.162Z,29.76
2023-02-14T12:06:36.854Z,29.62
2023-02-14T12:09:24.196Z,29.75
2023-02-14T12:11:55.639Z,28.47
2023-02-14T12:14:26.546Z,27.43
2023-02-14T12:17:05.691Z,28.02
2023-02-14T12:19:44.788Z,27.87
2023-02-14T12:22:19.261Z,27.67
2023-02-14T12:25:17.085Z,26.39
2023-02-14T12:27:55.287Z,25.71
2023-02-14T12:30:29.112Z,25.58
2023-02-14T12:32:58.071Z,25.68
2023-02-14T12:35:54.031Z,25.66
2023-02-14T12:39:03.331Z,25.71
2023-02-14T12:41:31.042Z,25.51
2023-02-14T12:44:14.620Z,26.26
2023-02-14T12:46:59.006Z,25.33
2023-02-14T12:49:49.605Z,25.88
2023-02-14T12:52:44.103Z,26.91
2023-02-14T12:55:33.763Z,27.08
2023-02-14T12:58:13.586Z,27.56
2023-02-14T13:01:29.222Z,26.92
2023-02-14T13:04:33.466Z,27.57
2023-02-14T13:07:24.810Z,26.71
2023-02-14T13:10:03.715Z,25.30
2023-02-14T13:12:42.254Z,25.67
2023-02-14T13:15:20.482Z,26.55
2023-02-14T13:17:54.945Z,27.20
2023-02-14T13:20:47.446Z,27.32
2023-02-14T13:23:30.584Z,27.44
2023-02-14T13:26:04.277Z,28.37
2023-02-14T13:28:33.126Z,27.99
2023-02-14T13:31:01.986Z,29.13
2023-02-14T13:33:44.650Z,28.88
2023-02-14T13:36:13.787Z,25.61
2023-02-14T13:41:24.604Z,26.60
2023-02-14T13:43:54.085Z,27.96
2023-02-14T13:46:44.568Z,27.07
2023-02-14T13:49:34.660Z,27.75
2023-02-14T13:52:04.556Z,26.70
2023-02-14T13:54:48.461Z,27.61
2023-02-14T13:57:36.655Z,27.50
2023-02-14T14:00:44.709Z,27.16
2023-02-14T14:03:27.722Z,25.67
2023-02-14T14:06:13.676Z,24.60
2023-02-14T14:08:54.473Z,23.17
2023-02-14T14:11:22.062Z,23.44
2023-02-14T14:13:55.394Z,22.27
2023-02-14T14:16:24.412Z,21.88
2023-02-14T14:19:30.535Z,22.46
2023-02-14T14:22:05.332Z,23.34
2023-02-14T14:24:36.702Z,21.67
2023-02-14T14:27:16.089Z,21.09
2023-02-14T14:29:56.648Z,21.37
2023-02-14T14:32:31.709Z,22.60
2023-02-14T14:35:24.828Z,23.00
2023-02-14T14:37:58.495Z,21.44
2023-02-14T14:40:32.733Z,21.01
2023-02-14T14:43:07.199Z,21.25
2023-02-14T14:45:35.352Z,21.12
2023-02-14T14:48:10.962Z,22.73
2023-02-14T14:50:40.061Z,23.31
2023-02-14T14:53:16.147Z,23.03
2023-02-14T14:55:46.754Z,22.05
2023-02-14T14:58:36.672Z,22.49
2023-02-14T15:01:07.228Z,21.79
2023-02-14T15:03:35.848Z,21.46
2023-02-14T15:06:17.438Z,20.05
2023-02-14T15:08:46.858Z,20.25
2023-02-14T15:11:37.523Z,21.89
2023-02-14T15:14:10.240Z,23.02
2023-02-14T15:16:51.783Z,23.68
2023-02-14T15:19:34.273Z,24.69
2023-02-14T15:22:05.977Z,25.13
2023-02-14T15:24:37.887Z,24.59
2023-02-14T15:27:05.953Z,25.54
2023-02-14T15:29:34.539Z,26.60
2023-02-14T15:32:03.750Z,29.19
2023-02-14T15:34:36.510Z,30.91
2023-02-14T15:37:06.774Z,33.73
2023-02-14T15:39:37.931Z,34.94
2023-02-14T15:42:06.315Z,36.86
2023-02-14T15:44:34.401Z,37.23
2023-02-14T15:47:05.936Z,37.90
2023-02-14T15:49:37.173Z,38.33
2023-02-14T15:52:05.995Z,39.13
2023-02-14T15:54:47.477Z,40.10
2023-02-14T15:57:28.105Z,40.56
2023-02-14T15:59:56.134Z,41.25
2023-02-14T16:02:38.053Z,41.35
2023-02-14T16:05:22.157Z,42.11
2023-02-14T16:08:05.614Z,42.59
2023-02-14T16:10:37.286Z,43.01
2023-02-14T16:13:19.161Z,43.71
2023-02-14T16:16:05.440Z,43.99
2023-02-14T16:18:48.925Z,44.42
2023-02-14T16:21:23.940Z,44.66
2023-02-14T16:24:07.019Z,45.43
2023-02-14T16:26:43.932Z,45.41
2023-02-14T16:29:17.451Z,45.47
2023-02-14T16:32:12.107Z,46.03
2023-02-14T16:34:37.691Z,46.81
2023-02-14T16:37:09.130Z,47.10
2023-02-14T16:39:39.522Z,47.57
2023-02-14T16:42:17.215Z,48.46
2023-02-14T16:44:46.544Z,48.98
2023-02-14T16:47:16.249Z,49.60
2023-02-14T16:49:44.563Z,50.00
2023-02-14T16:52:18.498Z,50.49
2023-02-14T16:54:46.892Z,50.84
2023-02-14T16:57:27.635Z,51.69
2023-02-14T16:59:57.306Z,52.37
2023-02-14T17:02:29.087Z,52.69
2023-02-14T17:04:56.804Z,53.34
2023-02-14T17:07:24.668Z,53.85
2023-02-14T17:09:56.412Z,54.68
2023-02-14T17:12:34.138Z,55.25
2023-02-14T17:15:11.809Z,55.96
2023-02-14T17:17:40.224Z,56.90
2023-02-14T17:20:09.258Z,57.57
2023-02-14T17:22:37.518Z,58.19
2023-02-14T17:25:06.613Z,59.45
2023-02-14T17:27:35.258Z,60.50
2023-02-14T17:30:02.981Z,61.48
2023-02-14T17:32:31.377Z,62.52
2023-02-14T17:34:58.978Z,62.16
2023-02-14T17:37:27.108Z,62.82
2023-02-14T17:39:55.242Z,63.62
2023-02-14T17:42:23.205Z,64.49
2023-02-14T17:44:50.744Z,65.40
2023-02-14T17:47:19.886Z,66.46
2023-02-14T17:49:48.945Z,67.48
2023-02-14T17:52:17.431Z,67.82
2023-02-14T17:54:45.001Z,67.92
2023-02-14T17:57:12.778Z,68.39
2023-02-14T17:59:40.495Z,70.50
2023-02-14T18:02:09.616Z,70.80
2023-02-14T18:04:37.444Z,71.87
2023-02-14T18:07:06.397Z,72.73
2023-02-14T18:09:34.419Z,73.27
2023-02-14T18:12:04.086Z,73.94
2023-02-14T18:14:32.672Z,75.03
2023-02-14T18:17:00.703Z,75.14
2023-02-14T18:19:29.704Z,75.85
2023-02-14T18:21:57.420Z,76.99
2023-02-14T18:24:26.920Z,78.11
2023-02-14T18:26:55.676Z,77.59
2023-02-14T18:29:25.628Z,75.00
2023-02-14T18:31:53.307Z,75.49
2023-02-14T18:34:21.289Z,77.32
2023-02-14T18:36:49.365Z,78.70
2023-02-14T18:39:17.445Z,79.42
2023-02-14T18:41:46.372Z,80.33
2023-02-14T18:44:13.952Z,82.65
2023-02-14T18:46:42.349Z,82.51
2023-02-14T18:49:10.468Z,82.69
2023-02-14T18:51:39.487Z,82.92
2023-02-14T18:54:08.295Z,81.96
2023-02-14T18:56:43.229Z,83.26
2023-02-14T18:59:11.281Z,83.76
2023-02-14T19:01:42.923Z,83.61
2023-02-14T19:04:13.470Z,84.81
2023-02-14T19:06:42.276Z,86.40
2023-02-14T19:09:13.007Z,86.85
2023-02-14T19:11:41.083Z,87.28
2023-02-14T19:14:13.344Z,88.12
2023-02-14T19:16:50.293Z,87.70
2023-02-14T19:19:18.714Z,89.04
2023-02-14T19:21:47.006Z,87.61
2023-02-14T19:24:16.649Z,88.91
2023-02-14T19:26:45.130Z,88.03
2023-02-14T19:29:17.232Z,88.61
2023-02-14T19:31:48.398Z,88.38
2023-02-14T19:34:21.964Z,87.88
2023-02-14T19:36:51.450Z,87.83
2023-02-14T19:39:20.994Z,90.09
2023-02-14T19:41:49.161Z,92.40
2023-02-14T19:44:18.333Z,93.22
2023-02-14T19:46:47.806Z,92.73
2023-02-14T19:49:19.379Z,93.18
2023-02-14T19:51:49.324Z,92.70
2023-02-14T19:54:18.368Z,93.01
2023-02-14T19:56:46.959Z,92.22
2023-02-14T19:59:20.020Z,90.56
2023-02-14T20:01:50.925Z,89.55
2023-02-14T20:04:25.382Z,89.84
2023-02-14T20:06:54.306Z,90.63
2023-02-14T20:09:23.769Z,90.60
2023-02-14T20:11:54.645Z,89.82
2023-02-14T20:14:29.224Z,88.77
2023-02-14T20:16:59.513Z,88.45
2023-02-14T20:19:32.567Z,88.72
2023-02-14T20:22:09.589Z,89.77
2023-02-14T20:24:38.394Z,90.19
2023-02-14T20:27:06.599Z,90.61
2023-02-14T20:29:35.167Z,92.30
2023-02-14T20:32:04.965Z,92.79
2023-02-14T20:34:32.907Z,90.23
2023-02-14T20:37:00.530Z,90.40
2023-02-14T20:39:30.782Z,89.21
2023-02-14T20:41:59.911Z,88.68
2023-02-14T20:44:28.769Z,90.14
2023-02-14T20:46:57.166Z,91.69
2023-02-14T20:49:26.763Z,93.05
2023-02-14T20:51:56.190Z,92.80
2023-02-14T20:54:27.128Z,91.75
2023-02-14T20:56:55.154Z,90.43
2023-02-14T20:59:27.066Z,91.03
2023-02-14T21:01:56.374Z,91.32
2023-02-14T21:04:24.816Z,91.71
2023-02-14T21:06:52.923Z,92.66
2023-02-14T21:09:21.286Z,91.86
2023-02-14T21:11:50.288Z,91.66
2023-02-14T21:14:17.940Z,91.32
2023-02-14T21:16:46.445Z,91.51
2023-02-14T21:19:13.955Z,91.47
2023-02-14T21:21:41.760Z,91.67
2023-02-14T21:24:11.658Z,90.14
2023-02-14T21:26:40.289Z,90.18
2023-02-14T21:29:08.803Z,90.69
2023-02-14T21:31:38.223Z,91.61
2023-02-14T21:34:06.473Z,91.90
2023-02-14T21:36:37.120Z,91.25
2023-02-14T21:39:06.466Z,93.07
2023-02-14T21:41:36.173Z,94.16
2023-02-14T21:44:05.034Z,94.55
2023-02-14T21:46:36.864Z,94.30
2023-02-14T21:49:25.382Z,95.17
2023-02-14T21:51:53.877Z,94.93
2023-02-14T21:54:21.558Z,94.16
2023-02-14T21:56:49.953Z,94.52
2023-02-14T21:59:17.722Z,95.91
2023-02-14T22:01:45.273Z,95.55
2023-02-14T22:04:13.227Z,96.17
2023-02-14T22:06:43.077Z,97.32
2023-02-14T22:09:14.554Z,97.29
2023-02-14T22:11:42.245Z,97.56
2023-02-14T22:14:09.921Z,98.38
2023-02-14T22:16:38.612Z,98.20
2023-02-14T22:19:09.178Z,98.10
2023-02-14T22:21:36.708Z,97.58
2023-02-14T22:24:05.453Z,97.71
2023-02-14T22:26:38.782Z,97.29
2023-02-14T22:29:08.440Z,98.88
2023-02-14T22:31:39.405Z,97.96
2023-02-14T22:34:10.050Z,100.00
2023-02-14T22:36:37.883Z,100.00
2023-02-14T22:39:06.749Z,100.00
2023-02-14T22:41:37.806Z,100.00
2023-02-14T22:44:07.193Z,100.00
2023-02-14T22:46:39.390Z,100.00
2023-02-14T22:49:07.984Z,100.00
2023-02-14T22:51:41.734Z,100.00
2023-02-14T22:54:12.371Z,100.00
2023-02-14T22:56:43.435Z,100.00
2023-02-14T22:59:19.451Z,100.00
2023-02-14T23:01:48.934Z,100.00
2023-02-14T23:04:19.415Z,100.00
2023-02-14T23:06:48.193Z,100.00
2023-02-14T23:09:16.549Z,100.00
2023-02-14T23:11:46.020Z,100.00
2023-02-14T23:14:34.801Z,100.00
2023-02-14T23:17:23.046Z,100.00
2023-02-14T23:20:09.271Z,100.00
2023-02-14T23:22:41.432Z,100.00
2023-02-14T23:25:11.451Z,100.00
2023-02-14T23:27:43.811Z,100.00
2023-02-14T23:30:15.407Z,100.00
2023-02-14T23:32:43.635Z,100.00
2023-02-14T23:35:11.604Z,100.00
2023-02-14T23:37:39.517Z,100.00
2023-02-14T23:40:08.485Z,100.00
2023-02-14T23:42:36.041Z,100.00
2023-02-14T23:45:23.383Z,100.00
2023-02-14T23:47:51.048Z,100.00
2023-02-14T23:50:18.878Z,100.00
2023-02-14T23:52:46.987Z,100.00
2023-02-14T23:55:15.535Z,100.00
2023-02-14T23:57:43.134Z,100.00
